Time;durP1;ratioP1;P1;durP2;ratioP2;P2;SDS_P1;SDS_P2;PMS_P1;PMS_P2;Temp;Humidity;BMP_temperature;BMP_pressure;BME280_temperature;BME280_humidity;BME280_pressure;Samples;Min_cycle;Max_cycle;Signal;HPM_P1;HPM_P2
2022/07/20 00:02:08;;;;;;;;;;;;;;;17.72;60.72;100930.84;1781246;80;20684;-80
2022/07/20 00:04:35;;;;;;;;;;;;;;;17.70;60.83;100930.91;1763142;79;21949;-80
2022/07/20 00:07:02;;;;;;;;;;;;;;;17.68;61.02;100927.52;1769452;79;20186;-80
2022/07/20 00:12:13;;;;;;;;;;;;;;;17.66;61.42;100923.25;1760596;79;20158;-80
2022/07/20 00:14:40;;;;;;;;;;;;;;;17.63;61.65;100926.08;1784793;79;20650;-80
2022/07/20 00:17:07;;;;;;;;;;;;;;;17.58;61.88;100930.31;1784926;79;21090;-79
2022/07/20 00:19:34;;;;;;;;;;;;;;;17.55;62.09;100933.15;1771323;79;20144;-80
2022/07/20 00:22:01;;;;;;;;;;;;;;;17.50;62.27;100927.25;1777106;79;20165;-80
2022/07/20 00:24:27;;;;;;;;;;;;;;;17.46;62.53;100930.56;1784752;79;20182;-80
2022/07/20 00:26:54;;;;;;;;;;;;;;;17.43;62.67;100932.06;1784988;79;20456;-79
2022/07/20 00:29:21;;;;;;;;;;;;;;;17.37;62.59;100917.34;1784765;80;21104;-79
2022/07/20 00:31:47;;;;;;;;;;;;;;;17.36;62.43;100923.59;1761087;80;20204;-80
2022/07/20 00:34:14;;;;;;;;;;;;;;;17.32;62.33;100919.42;1779388;79;20146;-79
2022/07/20 00:36:41;;;;;;;;;;;;;;;17.29;62.39;100917.39;1785098;79;20186;-80
2022/07/20 00:39:08;;;;;;;;;;;;;;;17.27;62.37;100917.98;1784673;79;20631;-79
2022/07/20 00:41:34;;;;;;;;;;;;;;;17.22;62.41;100920.03;1784820;79;21940;-80
2022/07/20 00:44:09;;;;;;;;;;;;;;;17.18;62.64;100919.33;1784734;79;20182;-80
2022/07/20 00:46:42;;;;;;;;;;;;;;;17.15;62.78;100912.88;1764871;80;20138;-79
2022/07/20 00:49:10;;;;;;;;;;;;;;;17.13;62.91;100922.73;1784769;79;20562;-79
2022/07/20 00:51:39;;;;;;;;;;;;;;;17.10;63.15;100922.91;1784778;79;20492;-79
2022/07/20 00:54:06;;;;;;;;;;;;;;;17.07;63.35;100917.30;1784689;79;21152;-79
2022/07/20 00:56:34;;;;;;;;;;;;;;;17.05;63.54;100920.98;1755136;79;20474;-79
2022/07/20 00:59:02;;;;;;;;;;;;;;;17.01;63.67;100918.95;1784866;80;20197;-79
2022/07/20 01:01:30;;;;;;;;;;;;;;;16.97;63.86;100920.55;1784583;79;20380;-79
2022/07/20 01:03:57;;;;;;;;;;;;;;;16.96;64.03;100923.67;1785004;80;20622;-79
2022/07/20 01:06:24;;;;;;;;;;;;;;;16.94;64.12;100917.12;1784720;80;21047;-79
2022/07/20 01:08:51;;;;;;;;;;;;;;;16.92;64.27;100922.11;1784888;79;20194;-79
2022/07/20 01:11:18;;;;;;;;;;;;;;;16.90;64.43;100914.72;1768208;80;20140;-79
2022/07/20 01:13:45;;;;;;;;;;;;;;;16.89;64.61;100916.98;1780064;80;20213;-79
2022/07/20 01:16:12;;;;;;;;;;;;;;;16.86;64.70;100913.19;1784657;80;20485;-80
2022/07/20 01:18:39;;;;;;;;;;;;;;;16.85;64.86;100918.96;1784891;79;21137;-80
2022/07/20 01:21:07;;;;;;;;;;;;;;;16.83;64.99;100915.53;1784668;79;20316;-80
2022/07/20 01:23:34;;;;;;;;;;;;;;;16.82;65.05;100914.28;1784901;79;20134;-79
2022/07/20 01:26:01;;;;;;;;;;;;;;;16.76;65.16;100919.41;1784709;79;20170;-79
2022/07/20 01:28:29;;;;;;;;;;;;;;;16.74;65.25;100914.69;1784691;79;20558;-79
2022/07/20 01:30:56;;;;;;;;;;;;;;;16.71;65.31;100919.69;1784714;79;21125;-79
2022/07/20 01:33:22;;;;;;;;;;;;;;;16.68;65.32;100914.56;1784514;80;20483;-79
2022/07/20 01:35:49;;;;;;;;;;;;;;;16.65;65.44;100911.20;1779607;79;20222;-79
2022/07/20 01:38:16;;;;;;;;;;;;;;;16.62;65.44;100914.86;1761085;79;20146;-79
2022/07/20 01:40:43;;;;;;;;;;;;;;;16.60;65.57;100910.59;1784774;80;21117;-79
2022/07/20 01:43:09;;;;;;;;;;;;;;;16.59;65.67;100911.06;1785074;80;21816;-80
2022/07/20 01:45:36;;;;;;;;;;;;;;;16.56;65.74;100912.55;1784675;79;20194;-79
2022/07/20 01:48:03;;;;;;;;;;;;;;;16.53;65.82;100919.34;1784964;79;20193;-79
2022/07/20 01:50:30;;;;;;;;;;;;;;;16.50;65.91;100909.77;1784693;80;20193;-79
2022/07/20 01:52:57;;;;;;;;;;;;;;;16.47;66.00;100913.91;1784966;79;20478;-80
2022/07/20 01:55:24;;;;;;;;;;;;;;;16.45;66.08;100912.28;1784917;79;21111;-79
2022/07/20 01:57:50;;;;;;;;;;;;;;;16.43;66.22;100913.70;1762184;80;20208;-80
2022/07/20 02:00:17;;;;;;;;;;;;;;;16.42;66.23;100910.65;1759375;80;20416;-80
2022/07/20 02:02:44;;;;;;;;;;;;;;;16.40;66.43;100912.52;1764709;80;20130;-80
2022/07/20 02:05:11;;;;;;;;;;;;;;;16.39;66.39;100909.97;1764613;80;20552;-79
2022/07/20 02:07:38;;;;;;;;;;;;;;;16.37;66.49;100911.83;1772826;80;21094;-80
2022/07/20 02:10:07;;;;;;;;;;;;;;;16.33;66.59;100911.63;1784796;79;20170;-80
2022/07/20 02:12:34;;;;;;;;;;;;;;;16.30;66.69;100912.63;1784754;79;20170;-79
2022/07/20 02:15:00;;;;;;;;;;;;;;;16.28;66.77;100915.34;1762950;80;20457;-80
2022/07/20 02:17:27;;;;;;;;;;;;;;;16.30;66.95;100911.78;1784856;80;20600;-79
2022/07/20 02:19:53;;;;;;;;;;;;;;;16.28;67.02;100917.99;1784698;79;21231;-79
2022/07/20 02:22:20;;;;;;;;;;;;;;;16.26;67.12;100915.04;1784873;79;20404;-80
2022/07/20 02:24:47;;;;;;;;;;;;;;;16.24;67.25;100915.61;1784848;80;20193;-80
2022/07/20 02:27:13;;;;;;;;;;;;;;;16.23;67.46;100918.70;1784847;80;20146;-79
2022/07/20 02:29:40;;;;;;;;;;;;;;;16.21;67.43;100916.62;1784898;80;20492;-79
2022/07/20 02:32:07;;;;;;;;;;;;;;;16.20;67.58;100920.18;1763229;80;21082;-80
2022/07/20 02:34:34;;;;;;;;;;;;;;;16.19;67.58;100914.52;1784705;80;20173;-79
2022/07/20 02:37:00;;;;;;;;;;;;;;;16.18;67.65;100915.43;1785164;80;20165;-79
2022/07/20 02:39:27;;;;;;;;;;;;;;;16.17;67.62;100912.88;1784979;80;20158;-79
2022/07/20 02:41:54;;;;;;;;;;;;;;;16.14;67.73;100909.08;1785235;79;20391;-79
2022/07/20 02:44:21;;;;;;;;;;;;;;;16.14;67.81;100913.05;1784706;80;21108;-77
2022/07/20 02:46:47;;;;;;;;;;;;;;;16.14;67.90;100909.08;1784953;79;20486;-80
2022/07/20 02:49:14;;;;;;;;;;;;;;;16.14;67.86;100912.58;1784788;80;20146;-81
2022/07/20 02:51:40;;;;;;;;;;;;;;;16.12;67.83;100909.14;1784989;80;20169;-81
2022/07/20 02:54:07;;;;;;;;;;;;;;;16.11;67.86;100909.24;1784706;80;21192;-81
2022/07/20 02:56:34;;;;;;;;;;;;;;;16.07;67.86;100908.52;1785059;80;21123;-81
2022/07/20 02:59:01;;;;;;;;;;;;;;;16.05;67.95;100904.66;1784740;80;20190;-81
2022/07/20 03:01:27;;;;;;;;;;;;;;;16.05;67.90;100902.48;1781208;80;20170;-81
2022/07/20 03:03:54;;;;;;;;;;;;;;;16.02;67.87;100907.94;1779508;80;20138;-80
2022/07/20 03:06:20;;;;;;;;;;;;;;;15.99;67.88;100903.66;1758029;80;21300;-81
2022/07/20 03:08:48;;;;;;;;;;;;;;;15.97;67.84;100905.52;1779624;80;21192;-81
2022/07/20 03:11:15;;;;;;;;;;;;;;;15.97;67.83;100907.31;1779790;80;20193;-81
2022/07/20 03:13:42;;;;;;;;;;;;;;;15.98;67.91;100909.02;1779558;80;20150;-80
2022/07/20 03:16:08;;;;;;;;;;;;;;;15.98;67.89;100910.33;1779858;80;20420;-81
2022/07/20 03:18:35;;;;;;;;;;;;;;;15.95;67.98;100914.45;1779577;80;20576;-80
2022/07/20 03:21:01;;;;;;;;;;;;;;;15.94;68.01;100916.73;1779865;80;21161;-81
2022/07/20 03:23:28;;;;;;;;;;;;;;;15.95;68.02;100923.71;1779438;80;20158;-81
2022/07/20 03:25:55;;;;;;;;;;;;;;;15.94;68.01;100920.69;1779880;80;20178;-81
2022/07/20 03:28:21;;;;;;;;;;;;;;;15.93;68.00;100930.39;1779465;80;20221;-81
2022/07/20 03:30:48;;;;;;;;;;;;;;;15.93;67.98;100926.42;1779932;80;20471;-81
2022/07/20 03:33:14;;;;;;;;;;;;;;;15.94;68.01;100924.66;1779422;80;21242;-80
2022/07/20 03:35:41;;;;;;;;;;;;;;;15.94;68.01;100928.63;1779661;80;20497;-82
2022/07/20 03:38:08;;;;;;;;;;;;;;;15.94;68.05;100925.51;1779512;80;20094;-81
2022/07/20 03:40:34;;;;;;;;;;;;;;;15.94;67.98;100935.23;1779890;80;20181;-77
2022/07/20 03:43:01;;;;;;;;;;;;;;;15.93;68.12;100935.67;1779574;80;20415;-78
2022/07/20 03:45:27;;;;;;;;;;;;;;;15.94;68.25;100932.11;1779696;80;21149;-78
2022/07/20 03:47:55;;;;;;;;;;;;;;;15.95;68.30;100934.28;1779538;80;20424;-77
2022/07/20 03:50:21;;;;;;;;;;;;;;;15.95;68.42;100935.61;1779842;80;20202;-79
2022/07/20 03:52:48;;;;;;;;;;;;;;;16.00;68.55;100938.87;1779466;80;20490;-78
2022/07/20 03:55:15;;;;;;;;;;;;;;;16.04;68.68;100944.38;1765869;80;20550;-78
2022/07/20 03:57:42;;;;;;;;;;;;;;;16.09;68.80;100943.69;1761405;80;21998;-78
2022/07/20 04:00:10;;;;;;;;;;;;;;;16.13;68.98;100945.25;1750482;80;20216;-78
2022/07/20 04:02:36;;;;;;;;;;;;;;;16.18;69.19;100945.00;1760020;79;20165;-78
2022/07/20 04:05:03;;;;;;;;;;;;;;;16.24;69.47;100946.03;1753982;80;20500;-78
2022/07/20 04:07:30;;;;;;;;;;;;;;;16.30;69.75;100943.53;1748851;80;20555;-78
2022/07/20 04:09:57;;;;;;;;;;;;;;;16.38;69.88;100939.98;1748516;79;21115;-78
2022/07/20 04:12:24;;;;;;;;;;;;;;;16.42;69.80;100941.08;1748864;79;20347;-78
2022/07/20 04:14:52;;;;;;;;;;;;;;;16.47;69.89;100945.66;1748408;80;20220;-78
2022/07/20 04:17:20;;;;;;;;;;;;;;;16.53;69.92;100950.25;1749525;80;20227;-78
2022/07/20 04:19:47;;;;;;;;;;;;;;;16.58;69.88;100955.68;1748649;80;20637;-78
2022/07/20 04:22:13;;;;;;;;;;;;;;;16.63;69.89;100951.47;1750338;80;21009;-78
2022/07/20 04:24:40;;;;;;;;;;;;;;;16.68;69.96;100951.62;1742192;80;20438;-78
2022/07/20 04:27:08;;;;;;;;;;;;;;;16.74;70.08;100951.75;1743874;80;20227;-78
2022/07/20 04:29:36;;;;;;;;;;;;;;;16.82;70.02;100950.02;1761838;80;20166;-79
2022/07/20 04:32:03;;;;;;;;;;;;;;;16.88;70.13;100953.69;1761622;79;20554;-78
2022/07/20 04:34:29;;;;;;;;;;;;;;;16.96;69.98;100947.50;1761699;79;21174;-78
2022/07/20 04:36:56;;;;;;;;;;;;;;;17.05;69.98;100950.95;1755738;79;20182;-78
2022/07/20 04:39:23;;;;;;;;;;;;;;;17.13;69.88;100952.71;1777312;80;20189;-78
2022/07/20 04:41:50;;;;;;;;;;;;;;;17.21;69.93;100953.62;1760319;81;20206;-78
2022/07/20 04:44:17;;;;;;;;;;;;;;;17.28;69.84;100955.44;1741118;80;20591;-78
2022/07/20 04:46:43;;;;;;;;;;;;;;;17.36;69.81;100959.36;1740052;80;21204;-78
2022/07/20 04:49:10;;;;;;;;;;;;;;;17.44;69.81;100956.28;1718582;82;20254;-79
2022/07/20 04:51:37;;;;;;;;;;;;;;;17.52;69.62;100959.83;1736731;82;20479;-78
2022/07/20 04:54:04;;;;;;;;;;;;;;;17.60;69.66;100958.45;1733828;82;20143;-79
2022/07/20 04:56:31;;;;;;;;;;;;;;;17.69;69.72;100959.70;1713673;83;20512;-79
2022/07/20 04:58:57;;;;;;;;;;;;;;;17.78;69.80;100956.55;1695937;83;21571;-79
2022/07/20 05:01:25;;;;;;;;;;;;;;;17.87;69.91;100963.10;1717872;82;20167;-79
2022/07/20 05:03:52;;;;;;;;;;;;;;;17.95;69.84;100962.19;1696010;83;20193;-78
2022/07/20 05:06:18;;;;;;;;;;;;;;;18.05;69.78;100966.01;1707428;83;20185;-78
2022/07/20 05:08:45;;;;;;;;;;;;;;;18.15;69.79;100965.00;1692969;83;20490;-79
2022/07/20 05:11:12;;;;;;;;;;;;;;;18.22;69.53;100958.37;1689726;83;21158;-79
2022/07/20 05:13:39;;;;;;;;;;;;;;;18.32;69.15;100961.78;1683794;83;20196;-79
2022/07/20 05:16:06;;;;;;;;;;;;;;;18.39;68.80;100962.66;1706552;83;20167;-78
2022/07/20 05:18:33;;;;;;;;;;;;;;;18.48;68.58;100966.55;1713324;82;20205;-78
2022/07/20 05:21:00;;;;;;;;;;;;;;;18.56;68.34;100962.95;1701574;82;20478;-78
2022/07/20 05:23:26;;;;;;;;;;;;;;;18.66;67.99;100968.56;1705644;83;21116;-80
2022/07/20 05:25:53;;;;;;;;;;;;;;;18.76;67.49;100964.88;1698913;83;20217;-78
2022/07/20 05:28:21;;;;;;;;;;;;;;;18.88;67.12;100958.81;1717807;83;20156;-80
2022/07/20 05:30:49;;;;;;;;;;;;;;;19.00;66.76;100959.84;1704593;83;20593;-81
2022/07/20 05:33:16;;;;;;;;;;;;;;;19.12;66.65;100963.03;1714723;83;21934;-78
2022/07/20 05:35:44;;;;;;;;;;;;;;;19.26;66.45;100960.81;1710045;83;21328;-82
2022/07/20 05:38:11;;;;;;;;;;;;;;;19.41;66.03;100963.83;1698345;83;20354;-84
2022/07/20 05:40:38;;;;;;;;;;;;;;;19.54;65.72;100959.42;1708675;83;20205;-78
2022/07/20 05:43:04;;;;;;;;;;;;;;;19.68;65.54;100959.87;1708381;83;20457;-77
2022/07/20 05:45:31;;;;;;;;;;;;;;;19.82;65.48;100957.62;1694594;83;20486;-78
2022/07/20 05:47:57;;;;;;;;;;;;;;;19.95;65.16;100953.64;1695152;83;21161;-78
2022/07/20 05:50:24;;;;;;;;;;;;;;;20.09;64.96;100958.87;1701844;83;20177;-77
2022/07/20 05:52:51;;;;;;;;;;;;;;;20.19;64.48;100959.95;1722862;83;20450;-78
2022/07/20 05:55:18;;;;;;;;;;;;;;;20.32;64.26;100955.14;1705083;83;20205;-79
2022/07/20 05:57:44;;;;;;;;;;;;;;;20.41;63.89;100955.83;1696112;83;20554;-80
2022/07/20 06:00:12;;;;;;;;;;;;;;;20.49;63.79;100958.32;1694228;83;21234;-82
2022/07/20 06:02:39;;;;;;;;;;;;;;;20.61;63.53;100961.96;1699530;82;20200;-80
2022/07/20 06:05:07;;;;;;;;;;;;;;;20.70;63.35;100963.13;1711290;83;20210;-77
2022/07/20 06:07:33;;;;;;;;;;;;;;;20.80;63.03;100970.00;1696979;83;20189;-80
2022/07/20 06:10:00;;;;;;;;;;;;;;;20.87;62.80;100973.95;1697195;83;20556;-77
2022/07/20 06:12:27;;;;;;;;;;;;;;;20.96;62.39;100975.09;1707646;83;20585;-76
2022/07/20 06:14:53;;;;;;;;;;;;;;;21.04;62.23;100974.06;1700741;83;20241;-79
2022/07/20 06:17:20;;;;;;;;;;;;;;;21.10;61.94;100974.95;1696684;83;20184;-75
2022/07/20 06:19:47;;;;;;;;;;;;;;;21.19;61.87;100974.77;1696903;83;20212;-76
2022/07/20 06:22:13;;;;;;;;;;;;;;;21.28;61.98;100976.75;1714857;83;20410;-76
2022/07/20 06:24:40;;;;;;;;;;;;;;;21.38;61.82;100975.16;1706522;83;21198;-79
2022/07/20 06:27:07;;;;;;;;;;;;;;;21.49;61.65;100981.05;1723408;83;21107;-77
2022/07/20 06:29:33;;;;;;;;;;;;;;;21.60;61.37;100984.61;1707704;83;20180;-80
2022/07/20 06:32:00;;;;;;;;;;;;;;;21.74;61.22;100986.74;1710679;83;20266;-77
2022/07/20 06:34:27;;;;;;;;;;;;;;;21.86;61.02;100991.14;1725487;83;20522;-77
2022/07/20 06:36:54;;;;;;;;;;;;;;;22.00;60.74;100992.31;1728087;83;21075;-77
2022/07/20 06:39:21;;;;;;;;;;;;;;;22.12;60.55;100991.86;1728016;83;20151;-80
2022/07/20 06:41:47;;;;;;;;;;;;;;;22.21;60.66;100988.52;1728278;83;20210;-77
2022/07/20 06:44:16;;;;;;;;;;;;;;;22.35;60.30;100995.95;1728149;82;20203;-78
2022/07/20 06:46:43;;;;;;;;;;;;;;;22.44;59.99;100997.41;1728237;83;21154;-80
2022/07/20 06:49:10;;;;;;;;;;;;;;;22.55;59.70;100993.06;1728385;83;21196;-79
2022/07/20 06:51:36;;;;;;;;;;;;;;;22.68;59.32;100997.82;1728120;83;20172;-78
2022/07/20 06:54:03;;;;;;;;;;;;;;;22.80;59.04;100998.67;1728224;82;20186;-76
2022/07/20 06:56:30;;;;;;;;;;;;;;;22.91;58.65;101004.02;1728405;83;20140;-77
2022/07/20 06:58:56;;;;;;;;;;;;;;;23.02;58.35;100996.02;1728446;83;20448;-76
2022/07/20 07:01:23;;;;;;;;;;;;;;;23.14;58.04;101003.53;1728116;83;21094;-76
2022/07/20 07:03:49;;;;;;;;;;;;;;;23.23;57.76;101001.48;1728060;83;20144;-79
2022/07/20 07:06:16;;;;;;;;;;;;;;;23.31;57.37;101002.20;1707735;83;20144;-77
2022/07/20 07:08:43;;;;;;;;;;;;;;;23.44;57.32;101006.05;1728094;83;20500;-78
2022/07/20 07:11:09;;;;;;;;;;;;;;;23.53;57.14;101001.30;1728332;83;20573;-77
2022/07/20 07:13:36;;;;;;;;;;;;;;;23.69;56.89;101003.55;1728205;82;21297;-77
2022/07/20 07:16:03;;;;;;;;;;;;;;;23.82;56.48;101004.27;1728014;83;20207;-80
2022/07/20 07:18:31;;;;;;;;;;;;;;;23.93;56.38;100994.84;1728497;83;20182;-78
2022/07/20 07:21:35;;;;;;;8.93;3.70;;;;;;;24.11;56.72;100991.58;1829814;77;28099;-82
2022/07/20 07:24:02;;;;;;;7.37;4.35;;;;;;;24.17;56.08;100987.91;1812727;77;21023;-82
2022/07/20 07:26:29;;;;;;;7.58;3.75;;;;;;;24.31;55.70;100989.91;1826625;77;21097;-79
2022/07/20 07:28:56;;;;;;;4.67;3.40;;;;;;;24.45;55.41;100990.44;1808678;78;22211;-81
2022/07/20 07:31:23;;;;;;;5.80;3.70;;;;;;;24.57;54.95;100989.87;1808198;77;21526;-82
2022/07/20 07:33:50;;;;;;;4.78;3.17;;;;;;;24.68;54.45;100983.08;1818957;78;20987;-81
2022/07/20 07:36:17;;;;;;;5.80;3.20;;;;;;;24.80;53.92;100983.83;1796916;78;21058;-82
2022/07/20 07:38:44;;;;;;;5.33;2.95;;;;;;;24.97;53.57;100980.16;1798875;78;21115;-81
2022/07/20 07:41:11;;;;;;;6.95;2.87;;;;;;;25.11;53.05;100974.44;1796886;78;21019;-81
2022/07/20 07:43:38;;;;;;;4.25;2.92;;;;;;;25.27;52.65;100973.42;1798802;78;20987;-81
2022/07/20 07:46:05;;;;;;;5.37;3.02;;;;;;;25.41;52.33;100969.48;1796937;78;21797;-80
2022/07/20 07:48:33;;;;;;;7.75;2.75;;;;;;;25.55;52.07;100974.94;1759609;80;21050;-79
2022/07/20 07:51:00;;;;;;;6.25;2.60;;;;;;;25.70;51.72;100976.73;1773528;80;21115;-82
2022/07/20 07:53:27;;;;;;;6.42;3.08;;;;;;;25.84;51.52;100972.81;1742236;80;20996;-77
2022/07/20 07:55:53;;;;;;;10.72;3.20;;;;;;;25.97;51.05;100972.87;1733746;81;21032;-77
2022/07/20 07:58:20;;;;;;;4.87;2.87;;;;;;;26.14;50.90;100971.30;1732923;81;21000;-79
2022/07/20 08:00:48;;;;;;;7.25;3.17;;;;;;;26.33;50.43;100973.10;1735780;81;21324;-83
2022/07/20 08:03:16;;;;;;;7.17;2.83;;;;;;;26.53;50.14;100975.77;1749012;81;21910;-80
2022/07/20 08:05:43;;;;;;;5.33;2.98;;;;;;;26.68;49.84;100978.31;1756698;80;21012;-81
2022/07/20 08:08:14;;;;;;;8.80;2.87;;;;;;;26.79;49.52;100980.81;1739209;81;21516;-81
2022/07/20 08:10:44;;;;;;;6.70;3.10;;;;;;;26.90;49.16;100983.31;1789652;80;20990;-82
2022/07/20 08:13:11;;;;;;;5.28;2.75;;;;;;;27.03;48.96;100980.80;1769416;80;21058;-81
2022/07/20 08:15:39;;;;;;;5.28;3.10;;;;;;;27.15;48.40;100982.27;1775916;80;21160;-81
2022/07/20 08:18:06;;;;;;;5.97;3.02;;;;;;;27.29;48.04;100980.94;1749100;81;21588;-80
2022/07/20 08:20:34;;;;;;;4.17;2.62;;;;;;;27.41;47.86;100977.05;1774250;78;21044;-82
2022/07/20 08:23:01;;;;;;;5.87;2.62;;;;;;;27.58;47.48;100981.59;1747532;81;21050;-79
2022/07/20 08:25:29;;;;;;;5.28;2.75;;;;;;;27.71;47.34;100976.31;1759696;81;21042;-82
2022/07/20 08:28:11;;;;;;;9.47;3.03;;;;;;;27.88;46.90;100970.59;1768066;80;22125;-78
2022/07/20 08:30:46;;;;;;;10.13;3.00;;;;;;;28.03;46.40;100972.59;1751743;81;21487;-81
2022/07/20 08:33:13;;;;;;;4.97;2.45;;;;;;;28.25;46.15;100973.93;1754445;81;21055;-82
2022/07/20 08:35:40;;;;;;;7.35;2.75;;;;;;;28.49;45.82;100972.92;1759074;81;21055;-82
2022/07/20 08:38:07;;;;;;;4.35;2.83;;;;;;;28.63;45.04;100972.34;1767625;80;21047;-80
2022/07/20 08:40:35;;;;;;;4.92;2.65;;;;;;;28.70;44.77;100970.68;1752010;81;21956;-82
2022/07/20 08:43:03;;;;;;;5.87;2.75;;;;;;;28.85;44.82;100968.21;1769495;80;21035;-82
2022/07/20 08:45:31;;;;;;;16.32;5.25;;;;;;;28.96;44.44;100966.59;1753501;81;21013;-81
2022/07/20 08:48:02;;;;;;;6.72;2.87;;;;;;;29.10;44.05;100966.51;1742520;81;21007;-82
2022/07/20 08:50:32;;;;;;;8.05;3.62;;;;;;;29.23;43.26;100964.16;1763066;80;21117;-82
2022/07/20 08:53:00;;;;;;;7.80;3.02;;;;;;;29.30;42.99;100965.20;1745637;81;21122;-83
2022/07/20 08:55:30;;;;;;;6.65;2.98;;;;;;;29.48;42.94;100959.65;1739930;81;21076;-79
2022/07/20 08:58:02;;;;;;;8.00;2.80;;;;;;;29.62;42.31;100955.45;1786147;80;21125;-81
2022/07/20 09:00:31;;;;;;;3.85;2.60;;;;;;;29.74;41.95;100957.37;1742082;81;21010;-83
2022/07/20 09:03:01;;;;;;;8.45;3.00;;;;;;;29.86;41.43;100955.17;1758999;81;21019;-85
2022/07/20 09:05:36;;;;;;;6.85;3.58;;;;;;;30.00;41.14;100953.97;1788372;80;20983;-83
2022/07/20 09:08:05;;;;;;;6.42;3.10;;;;;;;30.20;41.14;100959.84;1749649;81;21550;-79
2022/07/20 09:10:38;;;;;;;;;;;;;;;30.37;40.74;100958.50;1734553;81;20995;-78
2022/07/20 09:13:13;;;;;;;4.65;2.52;;;;;;;30.49;39.41;100962.55;1735030;81;20237;-77
2022/07/20 09:15:47;;;;;;;5.25;2.50;;;;;;;30.60;39.67;100955.92;1771345;80;21010;-78
2022/07/20 09:18:20;;;;;;;5.47;2.60;;;;;;;30.68;39.21;100956.73;1749885;81;21063;-81
2022/07/20 09:21:03;;;;;;;4.33;2.33;;;;;;;30.86;38.94;100963.79;1772613;80;20954;-81
2022/07/20 09:23:46;;;;;;;6.15;2.42;;;;;;;31.06;38.55;100963.68;1777499;80;21524;-80
2022/07/20 09:26:17;;;;;;;6.70;2.33;;;;;;;31.28;38.11;100959.33;1750121;80;21688;-82
2022/07/20 09:28:49;;;;;;;4.72;2.37;;;;;;;31.49;37.66;100959.24;1766577;80;21047;-79
2022/07/20 09:31:33;;;;;;;5.17;2.52;;;;;;;31.66;37.30;100954.02;1763987;81;21219;-81
2022/07/20 09:34:06;;;;;;;5.15;2.20;;;;;;;31.83;37.09;100950.66;1739680;81;20977;-81
2022/07/20 09:36:42;;;;;;;6.40;2.30;;;;;;;32.01;36.48;100944.96;1739669;81;21026;-82
2022/07/20 09:39:16;;;;;;;4.30;2.35;;;;;;;32.11;35.78;100944.16;1761996;80;21037;-79
2022/07/20 09:41:53;;;;;;;6.35;2.42;;;;;;;32.25;35.15;100942.50;1764519;80;21059;-80
2022/07/20 09:44:29;;;;;;;5.00;2.40;;;;;;;32.37;34.76;100936.95;1766232;81;21144;-78
2022/07/20 09:46:57;;;;;;;4.40;2.50;;;;;;;32.44;34.53;100930.25;1759643;81;21058;-77
2022/07/20 09:49:34;;;;;;;6.60;2.35;;;;;;;32.56;34.13;100932.01;1755628;81;21062;-77
2022/07/20 09:52:03;;;;;;;6.50;2.52;;;;;;;32.66;34.12;100929.85;1760317;81;21082;-78
2022/07/20 09:54:30;;;;;;;3.65;2.10;;;;;;;32.81;33.81;100927.98;1774775;79;21062;-78
2022/07/20 09:56:58;;;;;;;7.15;2.60;;;;;;;32.89;33.42;100927.00;1741030;81;21114;-81
2022/07/20 09:59:25;;;;;;;5.03;2.45;;;;;;;33.02;33.32;100929.08;1775921;80;21362;-81
2022/07/20 10:01:55;;;;;;;5.70;2.42;;;;;;;33.20;32.81;100925.92;1749516;81;20985;-82
2022/07/20 10:04:22;;;;;;;5.60;2.58;;;;;;;33.36;32.45;100923.48;1745558;81;21063;-81
2022/07/20 10:06:52;;;;;;;4.45;2.77;;;;;;;33.51;32.12;100929.18;1735292;81;22165;-79
2022/07/20 10:09:20;;;;;;;6.67;2.95;;;;;;;33.65;31.49;100926.62;1769824;79;21035;-82
2022/07/20 10:11:48;;;;;;;4.58;2.80;;;;;;;33.76;30.86;100924.20;1734749;81;20971;-79
2022/07/20 10:14:21;;;;;;;8.50;2.90;;;;;;;33.82;30.27;100922.58;1769703;79;21062;-79
2022/07/20 10:16:55;;;;;;;5.87;2.85;;;;;;;33.94;30.00;100922.34;1745977;81;21521;-81
2022/07/20 10:19:48;;;;;;;5.47;2.90;;;;;;;34.10;29.74;100917.69;1769602;79;21026;-82
2022/07/20 10:22:16;;;;;;;5.22;2.60;;;;;;;34.23;29.27;100922.36;1757217;81;21106;-82
2022/07/20 10:24:44;;;;;;;6.12;2.60;;;;;;;34.35;28.77;100925.69;1787866;80;21059;-80
2022/07/20 10:27:27;;;;;;;6.15;3.00;;;;;;;34.46;28.61;100918.84;1746258;81;21091;-83
2022/07/20 10:29:57;;;;;;;5.65;2.60;;;;;;;34.60;28.52;100916.54;1751379;81;21034;-80
2022/07/20 10:32:25;;;;;;;;;;;;;;;34.82;28.11;100916.43;1767003;80;21533;-79
2022/07/20 10:34:59;;;;;;;3.67;2.47;;;;;;;35.02;27.67;100917.84;1764228;81;21042;-81
2022/07/20 10:37:37;;;;;;;5.58;2.77;;;;;;;35.27;27.60;100915.42;1725149;81;20936;-83
2022/07/20 10:40:25;;;;;;;3.77;2.30;;;;;;;35.55;26.99;100918.50;1763475;80;21058;-78
2022/07/20 10:43:12;;;;;;;5.00;2.67;;;;;;;35.79;26.35;100915.18;1738177;81;21071;-81
2022/07/20 10:45:39;;;;;;;5.33;2.40;;;;;;;36.07;26.11;100910.05;1759854;80;21137;-83
2022/07/20 10:48:20;;;;;;;6.28;2.40;;;;;;;36.40;25.94;100903.14;1758405;81;21205;-83
2022/07/20 10:50:55;;;;;;;8.43;2.40;;;;;;;36.68;25.50;100896.02;1757214;78;21700;-90
2022/07/20 10:53:30;;;;;;;6.65;2.47;;;;;;;36.89;25.33;100902.22;1747649;81;21047;-87
2022/07/20 10:56:05;;;;;;;8.05;2.67;;;;;;;37.09;25.35;100902.98;1757651;80;20959;-80
2022/07/20 10:58:35;;;;;;;5.40;2.45;;;;;;;37.32;25.25;100894.73;1769906;78;21054;-86
2022/07/20 11:01:10;;;;;;;5.37;2.70;;;;;;;37.53;24.40;100900.41;1761946;78;21106;-80
2022/07/20 11:03:43;;;;;;;5.15;2.05;;;;;;;37.57;24.42;100896.98;1758724;78;21051;-82
2022/07/20 11:06:15;;;;;;;7.10;2.22;;;;;;;37.80;24.08;100897.72;1764769;78;22087;-81
2022/07/20 11:09:01;;;;;;;5.03;2.12;;;;;;;37.99;23.98;100892.32;1767982;81;21090;-80
2022/07/20 11:11:34;;;;;;;4.80;2.10;;;;;;;38.22;23.52;100893.88;1768021;81;21116;-82
2022/07/20 11:14:05;;;;;;;6.97;2.30;;;;;;;38.38;23.04;100894.64;1767574;81;21181;-84
2022/07/20 11:16:34;;;;;;;4.45;1.92;;;;;;;38.43;22.81;100894.50;1766587;78;21029;-82
2022/07/20 11:19:04;;;;;;;5.90;2.17;;;;;;;38.46;22.62;100893.50;1766194;78;21066;-80
2022/07/20 11:21:35;;;;;;;3.75;2.20;;;;;;;38.62;22.59;100895.33;1761661;80;21035;-81
2022/07/20 11:24:03;;;;;;;4.53;2.33;;;;;;;38.71;22.35;100887.08;1766010;80;21051;-81
2022/07/20 11:26:31;;;;;;;6.17;2.37;;;;;;;38.80;22.21;100888.42;1765751;80;21134;-82
2022/07/20 11:28:59;;;;;;;4.20;1.98;;;;;;;38.83;21.91;100889.36;1769933;78;21528;-86
2022/07/20 11:31:30;;;;;;;5.83;2.10;;;;;;;38.77;21.76;100887.52;1785891;78;21035;-82
2022/07/20 11:33:59;;;;;;;4.83;2.27;;;;;;;38.77;21.59;100878.79;1784010;78;21034;-82
2022/07/20 11:36:36;;;;;;;4.47;2.20;;;;;;;38.77;21.78;100876.05;1780783;80;21084;-78
2022/07/20 11:39:10;;;;;;;4.28;2.10;;;;;;;38.88;21.85;100875.80;1757776;78;21120;-80
2022/07/20 11:41:40;;;;;;;4.17;1.92;;;;;;;38.99;21.58;100876.38;1766953;78;21565;-77
2022/07/20 11:44:18;;;;;;;4.05;2.15;;;;;;;38.93;21.34;100874.57;1766991;78;21043;-81
2022/07/20 11:46:48;;;;;;;4.67;1.93;;;;;;;39.03;21.11;100876.77;1776807;80;21120;-79
2022/07/20 11:49:18;;;;;;;5.75;2.20;;;;;;;39.13;21.00;100866.58;1779035;80;21058;-80
2022/07/20 11:51:55;;;;;;;5.87;2.10;;;;;;;39.28;20.91;100867.53;1793033;78;21093;-82
2022/07/20 11:54:24;;;;;;;11.30;2.25;;;;;;;39.34;20.74;100862.50;1791425;80;21045;-84
2022/07/20 11:56:53;;;;;;;5.15;2.40;;;;;;;39.40;20.68;100866.48;1794774;79;21070;-82
2022/07/20 11:59:22;;;;;;;5.55;2.00;;;;;;;39.56;20.54;100853.99;1793171;80;21468;-79
2022/07/20 12:01:57;;;;;;;4.50;2.10;;;;;;;39.74;20.55;100857.14;1769217;80;21009;-81
2022/07/20 12:04:24;;;;;;;3.67;1.98;;;;;;;39.75;20.21;100848.39;1793156;78;21118;-81
2022/07/20 12:06:55;;;;;;;6.40;2.40;;;;;;;39.75;20.20;100857.45;1790814;79;21039;-79
2022/07/20 12:09:25;;;;;;;5.60;2.08;;;;;;;39.79;20.03;100856.47;1792791;78;20970;-79
2022/07/20 12:12:05;;;;;;;4.65;2.15;;;;;;;39.78;19.87;100852.89;1775249;79;21044;-77
2022/07/20 12:14:35;;;;;;;4.55;2.27;;;;;;;39.89;19.98;100849.84;1789646;80;21039;-84
2022/07/20 12:17:15;;;;;;;5.47;2.20;;;;;;;39.92;19.79;100845.24;1790695;79;21100;-81